Terminal Aerodrome Forecast
Issued by NWS Albany, NY

Home | Current Version | Previous Version | Text Only | Print | Product List | Glossary On
Versions: 1 2 3 4 5 6 7 8 9 10 11 12 13 14 15 16 17 18 19
537
FTUS41 KALY 281133
TAFALB
TAF
KALB 281133Z 2812/2912 VRB03KT P6SM SCT250
     FM281600 20006KT P6SM SCT100 BKN250
     FM282000 22007KT P6SM VCSH SCT060 BKN200 PROB30 2821/2824 5SM
      -TSRA BR BKN050CB
     FM290200 VRB04KT P6SM FEW050 BKN200
     FM290700 VRB03KT 6SM -RA BR BKN050 OVC100=

USA.gov is the U.S. government's official web portal to all federal, state and local government web resources and services.